ADDS METAR Data INFO
IDs: Format: Raw Decoded Include TAF

Data at: 0220 UTC 18 Jan 2018

KSFY 180215Z AUTO 22009KT 10SM CLR M07/M12 A3030 RMK AO2 T10731120
KSFY 180155Z AUTO 22010G14KT 10SM CLR M07/M12 A3031 RMK AO2 T10751119
KSFY 180135Z AUTO 22009KT 10SM CLR M08/M12 A3033 RMK AO2 T10771121
KSFY 180115Z AUTO 21009KT 10SM CLR M08/M12 A3034 RMK AO2 T10771121
KSFY 180055Z AUTO 21009KT 10SM CLR M08/M12 A3035 RMK AO2 T10761120
KSFY 180035Z AUTO 21009KT 10SM CLR M08/M12 A3036 RMK AO2 T10801120
KSFY 180015Z AUTO 22009KT 10SM CLR M08/M12 A3036 RMK AO2 T10761121
KSFY 172355Z AUTO 22011KT 10SM CLR M07/M12 A3037 RMK AO2 T10751120 11064 21101
KSFY 172335Z AUTO 22010G14KT 10SM CLR M07/M12 A3038 RMK AO2 T10751121
KSFY 172315Z AUTO 22010G14KT 10SM CLR M07/M12 A3039 RMK AO2 T10751120
KSFY 172255Z AUTO 22010KT 10SM CLR M07/M12 A3039 RMK AO2 T10741120
KSFY 172235Z AUTO 22009G17KT 10SM CLR M07/M12 A3039 RMK AO2 T10701119
KSFY 172215Z AUTO 22008KT 10SM CLR M07/M12 A3039 RMK AO2 T10671118
KSFY 172155Z AUTO 23013G17KT 10SM CLR M06/M12 A3040 RMK AO2 T10651116
KSFY 172135Z AUTO 22008KT 10SM CLR M06/M12 A3040 RMK AO2 T10651120
KSFY 172115Z AUTO 23014G17KT 10SM CLR M07/M12 A3041 RMK AO2 T10661122
KSFY 172055Z AUTO 23011KT 10SM CLR M07/M12 A3041 RMK AO2 T10671120
KSFY 172035Z AUTO 23011G14KT 10SM CLR M07/M12 A3042 RMK AO2 T10671121
KSFY 172015Z AUTO 23012G16KT 10SM CLR M07/M12 A3044 RMK AO2 T10691123
KSFY 171955Z AUTO 24010KT 10SM CLR M07/M12 A3045 RMK AO2 T10711125
KSFY 171935Z AUTO 23009KT 10SM CLR M07/M12 A3045 RMK AO2 T10701122
KSFY 171915Z AUTO 22008KT 10SM CLR M08/M13 A3046 RMK AO2 T10771129
KSFY 171855Z AUTO 23008KT 10SM CLR M08/M13 A3047 RMK AO2 T10821132
KSFY 171835Z AUTO 22009KT 10SM CLR M09/M14 A3049 RMK AO2 T10901137
KSFY 171815Z AUTO 23011G15KT 10SM CLR M10/M14 A3050 RMK AO2 T10971142
KSFY 171755Z AUTO 22007KT 10SM CLR M10/M15 A3051 RMK AO2 T11021147 11102 21200
KSFY 171735Z AUTO 22008KT 10SM CLR M11/M15 A3053 RMK AO2 T11071154
KSFY 171715Z AUTO 22004KT 10SM CLR M12/M16 A3055 RMK AO2 T11161161
KSFY 171655Z AUTO 22006KT 10SM CLR M13/M17 A3056 RMK AO2 T11291167
KSFY 171635Z AUTO 22005KT 10SM CLR M13/M17 A3057 RMK AO2 T11261166
KSFY 171615Z AUTO 21004KT 10SM CLR M14/M18 A3057 RMK AO2 T11411178
KSFY 171555Z AUTO 20005KT 10SM CLR M15/M18 A3057 RMK AO2 T11501182
KSFY 171535Z AUTO 18004KT 10SM CLR M16/M19 A3058 RMK AO2 T11581190
KSFY 171515Z AUTO 19004KT 10SM CLR M16/M19 A3057 RMK AO2 T11641192
KSFY 171455Z AUTO 21004KT 10SM CLR M17/M20 A3057 RMK AO2 T11701198
KSFY 171435Z AUTO 20006KT 10SM CLR M17/M20 A3056 RMK AO2 T11751200
KSFY 171415Z AUTO 00000KT 7SM CLR M19/M22 A3056 RMK AO2 T11941216
KSFY 171355Z AUTO 19003KT 10SM CLR M19/M22 A3056 RMK AO2 T11941217
KSFY 171335Z AUTO 19003KT 10SM CLR M20/M22 A3056 RMK AO2 T11981220
KSFY 171315Z AUTO 20004KT 10SM CLR M19/M22 A3057 RMK AO2 T11951217
KSFY 171255Z AUTO 20004KT 10SM CLR M20/M22 A3057 RMK AO2 T11961219
KSFY 171235Z AUTO 22003KT 10SM CLR M18/M21 A3058 RMK AO2 T11841207
KSFY 171215Z AUTO 23004KT 10SM CLR M19/M21 A3057 RMK AO2 T11871211
KSFY 171155Z AUTO 22004KT 10SM CLR M19/M21 A3057 RMK AO2 T11921210 11160 21205
KSFY 171135Z AUTO 22003KT 10SM CLR M18/M21 A3058 RMK AO2 T11841206
KSFY 171115Z AUTO 24003KT 10SM CLR M18/M20 A3058 RMK AO2 T11821202
KSFY 171055Z AUTO 24003KT 10SM CLR M18/M20 A3058 RMK AO2 T11811202
KSFY 171035Z AUTO 25004KT 10SM CLR M18/M20 A3057 RMK AO2 T11781200
KSFY 171015Z AUTO 25004KT 10SM CLR M18/M20 A3058 RMK AO2 T11781200
KSFY 170955Z AUTO 24004KT 10SM CLR M18/M20 A3058 RMK AO2 T11781198
KSFY 170935Z AUTO 25003KT 10SM CLR M19/M21 A3059 RMK AO2 T11891208
KSFY 170915Z AUTO 00000KT 10SM CLR M18/M20 A3059 RMK AO2 T11791202
KSFY 170855Z AUTO 26004KT 10SM SCT007 M17/M19 A3059 RMK AO2 T11711194
KSFY 170835Z AUTO 26003KT 10SM SCT007 M17/M19 A3059 RMK AO2 T11721195
KSFY 170815Z AUTO 25003KT 10SM CLR M17/M19 A3059 RMK AO2 T11711193
KSFY 170755Z AUTO 00000KT 10SM CLR M17/M19 A3059 RMK AO2 T11681192
KSFY 170735Z AUTO 26004KT 10SM CLR M17/M19 A3059 RMK AO2 T11671192
KSFY 170715Z AUTO 27003KT 10SM CLR M16/M19 A3059 RMK AO2 T11651190
KSFY 170655Z AUTO 28004KT 10SM CLR M16/M19 A3059 RMK AO2 T11631188
KSFY 170635Z AUTO 28003KT 10SM CLR M16/M19 A3059 RMK AO2 T11611187
KSFY 170615Z AUTO 27003KT 10SM CLR M16/M18 A3059 RMK AO2 T11601185
KSFY 170555Z AUTO 28003KT 10SM CLR M16/M18 A3059 RMK AO2 T11591183 11100 21159 410671167
KSFY 170535Z AUTO 27003KT 10SM CLR M15/M18 A3060 RMK AO2 T11551180
KSFY 170515Z AUTO 27004KT 10SM CLR M15/M18 A3060 RMK AO2 T11511176
KSFY 170455Z AUTO 26004KT 10SM CLR M15/M17 A3060 RMK AO2 T11501175
KSFY 170435Z AUTO 28004KT 10SM CLR M15/M17 A3060 RMK AO2 T11481172
KSFY 170415Z AUTO 00000KT 10SM CLR M14/M17 A3061 RMK AO2 T11431166
KSFY 170355Z AUTO 29003KT 10SM CLR M14/M16 A3061 RMK AO2 T11391164
KSFY 170335Z AUTO 30004KT 10SM CLR M14/M16 A3060 RMK AO2 T11371162
KSFY 170315Z AUTO 29005KT 10SM CLR M14/M16 A3061 RMK AO2 T11361161
KSFY 170255Z AUTO 29006KT 10SM CLR M13/M15 A3061 RMK AO2 T11301155
KSFY 170235Z AUTO 29006KT 10SM CLR M12/M15 A3060 RMK AO2 T11251152
KSFY 170215Z AUTO 29004KT 10SM CLR M12/M15 A3061 RMK AO2 T11241150
KSFY 170200Z AUTO 28004KT 10SM CLR M12/M15 A3060 RMK AO2 T11191147
KSFY 170135Z AUTO 30004KT 10SM CLR M11/M14 A3061 RMK AO2 T11141142
KSFY 170115Z AUTO 30005KT 10SM CLR M11/M14 A3061 RMK AO2 T11121142
KSFY 170055Z AUTO 30005KT 10SM CLR M11/M14 A3060 RMK AO2 T11101140
KSFY 170035Z AUTO 30004KT 10SM CLR M11/M14 A3060 RMK AO2 T11061140
KSFY 170015Z AUTO 30007KT 10SM CLR M10/M14 A3059 RMK AO2 T11051138
KSFY 162355Z AUTO 31008KT 10SM CLR M10/M14 A3059 RMK AO2 T11011137 11067 21101
KSFY 162335Z AUTO 30007KT 10SM CLR M09/M13 A3058 RMK AO2 T10951135
KSFY 162315Z AUTO 30008KT 10SM CLR M09/M13 A3058 RMK AO2 T10901130
KSFY 162255Z AUTO 28005KT 10SM CLR M08/M12 A3058 RMK AO2 T10851125
KSFY 162230Z AUTO 29006KT 10SM CLR M08/M12 A3058 RMK AO2 T10781123
KSFY 162215Z AUTO 28007KT 10SM CLR M08/M12 A3057 RMK AO2 T10761121
KSFY 162155Z AUTO 28008KT 10SM CLR M07/M12 A3056 RMK AO2 T10741120
KSFY 162135Z AUTO 26006KT 10SM CLR M07/M12 A3056 RMK AO2 T10721119
KSFY 162115Z AUTO 29006KT 10SM CLR M07/M12 A3056 RMK AO2 T10671120
KSFY 162055Z AUTO 28007KT 10SM CLR M07/M12 A3056 RMK AO2 T10701121
KSFY 162035Z AUTO 29007KT 10SM CLR M07/M12 A3056 RMK AO2 T10701121
KSFY 162015Z AUTO 29006KT 10SM CLR M07/M12 A3055 RMK AO2 T10701121
KSFY 161955Z AUTO 27007KT 10SM CLR M07/M12 A3055 RMK AO2 T10701121
KSFY 161935Z AUTO 32008KT 10SM CLR M07/M12 A3055 RMK AO2 T10691122
KSFY 161915Z AUTO 30011KT 10SM CLR M07/M12 A3055 RMK AO2 T10751124
KSFY 161855Z AUTO 30008KT 10SM CLR M08/M12 A3055 RMK AO2 T10771125
KSFY 161835Z AUTO 30007KT 10SM CLR M08/M13 A3055 RMK AO2 T10831129
KSFY 161815Z AUTO 29008KT 10SM CLR M09/M13 A3055 RMK AO2 T10861130
KSFY 161755Z AUTO 30007KT 10SM SCT039 M09/M13 A3056 RMK AO2 T10881130 11088 21150
KSFY 161735Z AUTO 30007KT 5SM -SN SCT021 SCT029 SCT039 M09/M13 A3057 RMK AO2 T10931132
KSFY 161715Z AUTO 32007KT 5SM -SN BKN023 OVC029 M09/M13 A3057 RMK AO2 T10931133
KSFY 161655Z AUTO 35009KT 7SM -SN SCT017 BKN030 OVC038 M09/M14 A3058 RMK AO2 T10951136
KSFY 161635Z AUTO 33009KT 4SM -SN BKN019 OVC027 M10/M14 A3058 RMK AO2 T11011136
KSFY 161615Z AUTO 32009KT 10SM -SN SCT021 BKN025 BKN036 M11/M14 A3058 RMK AO2 T11071144
KSFY 161555Z AUTO 31007KT 10SM -SN SCT038 SCT065 M11/M15 A3057 RMK AO2 T11111147
KSFY 161535Z AUTO 33008KT 10SM -SN CLR M12/M15 A3056 RMK AO2 T11201153
KSFY 161515Z AUTO 32009KT 10SM CLR M12/M15 A3056 RMK AO2 T11251155
KSFY 161455Z AUTO 31006KT 10SM CLR M13/M16 A3055 RMK AO2 T11311160
KSFY 161435Z AUTO 31005KT 10SM SCT014 M14/M16 A3055 RMK AO2 T11361161